sensor_id;sensor_type;location;lat;lon;timestamp;P1;durP1;ratioP1;P2;durP2;ratioP2
70010;SDS011;59543;37.950;-122.338;2023-05-16T00:00:57;10.50;;;0.50;;
70010;SDS011;59543;37.950;-122.338;2023-05-16T00:03:25;1.90;;;0.50;;
70010;SDS011;59543;37.950;-122.338;2023-05-16T00:05:52;4.35;;;0.40;;
70010;SDS011;59543;37.950;-122.338;2023-05-16T00:08:18;4.05;;;0.60;;
70010;SDS011;59543;37.950;-122.338;2023-05-16T00:10:44;3.70;;;0.50;;
70010;SDS011;59543;37.950;-122.338;2023-05-16T00:13:11;2.30;;;0.50;;
70010;SDS011;59543;37.950;-122.338;2023-05-16T00:15:37;2.20;;;0.80;;
70010;SDS011;59543;37.950;-122.338;2023-05-16T00:18:04;2.08;;;0.55;;
70010;SDS011;59543;37.950;-122.338;2023-05-16T00:20:30;1.15;;;0.50;;
70010;SDS011;59543;37.950;-122.338;2023-05-16T00:22:57;4.18;;;0.52;;
70010;SDS011;59543;37.950;-122.338;2023-05-16T00:25:25;4.68;;;0.60;;
70010;SDS011;59543;37.950;-122.338;2023-05-16T00:27:52;2.08;;;0.65;;
70010;SDS011;59543;37.950;-122.338;2023-05-16T00:30:19;8.93;;;1.05;;
70010;SDS011;59543;37.950;-122.338;2023-05-16T00:32:45;6.15;;;0.88;;
70010;SDS011;59543;37.950;-122.338;2023-05-16T00:35:11;3.70;;;0.70;;
70010;SDS011;59543;37.950;-122.338;2023-05-16T00:37:38;1.42;;;0.43;;
70010;SDS011;59543;37.950;-122.338;2023-05-16T00:40:04;7.13;;;0.82;;
70010;SDS011;59543;37.950;-122.338;2023-05-16T00:42:31;4.60;;;0.70;;
70010;SDS011;59543;37.950;-122.338;2023-05-16T00:44:57;2.55;;;0.60;;
70010;SDS011;59543;37.950;-122.338;2023-05-16T00:47:24;3.28;;;0.70;;
70010;SDS011;59543;37.950;-122.338;2023-05-16T00:49:50;3.28;;;1.10;;
70010;SDS011;59543;37.950;-122.338;2023-05-16T00:52:17;2.47;;;0.60;;
70010;SDS011;59543;37.950;-122.338;2023-05-16T00:54:43;3.40;;;0.85;;
70010;SDS011;59543;37.950;-122.338;2023-05-16T00:57:09;4.35;;;0.70;;
70010;SDS011;59543;37.950;-122.338;2023-05-16T00:59:36;3.05;;;0.70;;
70010;SDS011;59543;37.950;-122.338;2023-05-16T01:02:02;4.78;;;0.90;;
70010;SDS011;59543;37.950;-122.338;2023-05-16T01:04:28;2.40;;;0.65;;
70010;SDS011;59543;37.950;-122.338;2023-05-16T01:06:56;5.80;;;0.60;;
70010;SDS011;59543;37.950;-122.338;2023-05-16T01:09:23;7.22;;;1.08;;
70010;SDS011;59543;37.950;-122.338;2023-05-16T01:17:28;1.67;;;0.50;;
70010;SDS011;59543;37.950;-122.338;2023-05-16T01:20:10;3.22;;;0.77;;
70010;SDS011;59543;37.950;-122.338;2023-05-16T01:25:53;5.57;;;1.13;;
70010;SDS011;59543;37.950;-122.338;2023-05-16T01:28:39;3.13;;;1.02;;
70010;SDS011;59543;37.950;-122.338;2023-05-16T01:31:06;2.25;;;0.57;;
70010;SDS011;59543;37.950;-122.338;2023-05-16T01:33:32;5.70;;;0.88;;
70010;SDS011;59543;37.950;-122.338;2023-05-16T01:36:20;1.58;;;0.60;;
70010;SDS011;59543;37.950;-122.338;2023-05-16T01:44:22;2.40;;;0.40;;
70010;SDS011;59543;37.950;-122.338;2023-05-16T01:46:57;2.22;;;0.57;;
70010;SDS011;59543;37.950;-122.338;2023-05-16T01:49:41;5.13;;;0.60;;
70010;SDS011;59543;37.950;-122.338;2023-05-16T01:52:45;5.30;;;0.65;;
70010;SDS011;59543;37.950;-122.338;2023-05-16T01:55:14;2.05;;;0.70;;
70010;SDS011;59543;37.950;-122.338;2023-05-16T01:57:52;1.77;;;0.57;;
70010;SDS011;59543;37.950;-122.338;2023-05-16T02:00:19;2.17;;;0.43;;
70010;SDS011;59543;37.950;-122.338;2023-05-16T02:02:49;2.22;;;0.50;;
70010;SDS011;59543;37.950;-122.338;2023-05-16T02:05:15;3.08;;;0.60;;
70010;SDS011;59543;37.950;-122.338;2023-05-16T02:07:41;3.13;;;0.52;;
70010;SDS011;59543;37.950;-122.338;2023-05-16T02:10:08;4.13;;;0.80;;
70010;SDS011;59543;37.950;-122.338;2023-05-16T02:12:35;4.40;;;0.82;;
70010;SDS011;59543;37.950;-122.338;2023-05-16T02:15:02;4.43;;;0.88;;
70010;SDS011;59543;37.950;-122.338;2023-05-16T02:17:28;3.05;;;0.70;;
70010;SDS011;59543;37.950;-122.338;2023-05-16T02:19:54;3.10;;;0.50;;
70010;SDS011;59543;37.950;-122.338;2023-05-16T02:22:20;3.50;;;0.80;;
70010;SDS011;59543;37.950;-122.338;2023-05-16T02:24:46;3.65;;;0.90;;
70010;SDS011;59543;37.950;-122.338;2023-05-16T02:27:13;5.22;;;1.25;;
70010;SDS011;59543;37.950;-122.338;2023-05-16T02:29:39;3.22;;;0.73;;
70010;SDS011;59543;37.950;-122.338;2023-05-16T02:32:05;3.08;;;0.80;;
70010;SDS011;59543;37.950;-122.338;2023-05-16T02:34:31;3.17;;;0.82;;
70010;SDS011;59543;37.950;-122.338;2023-05-16T02:36:58;2.13;;;0.68;;
70010;SDS011;59543;37.950;-122.338;2023-05-16T02:39:24;7.55;;;1.10;;
70010;SDS011;59543;37.950;-122.338;2023-05-16T02:41:50;2.95;;;0.98;;
70010;SDS011;59543;37.950;-122.338;2023-05-16T02:44:16;2.22;;;0.60;;
70010;SDS011;59543;37.950;-122.338;2023-05-16T02:46:43;4.90;;;0.70;;
70010;SDS011;59543;37.950;-122.338;2023-05-16T02:49:09;6.68;;;1.27;;
70010;SDS011;59543;37.950;-122.338;2023-05-16T02:51:35;5.13;;;0.93;;
70010;SDS011;59543;37.950;-122.338;2023-05-16T02:54:01;3.53;;;0.75;;
70010;SDS011;59543;37.950;-122.338;2023-05-16T02:56:28;5.07;;;1.10;;
70010;SDS011;59543;37.950;-122.338;2023-05-16T02:58:54;51.85;;;4.18;;
70010;SDS011;59543;37.950;-122.338;2023-05-16T03:01:20;5.85;;;1.05;;
70010;SDS011;59543;37.950;-122.338;2023-05-16T03:03:47;4.18;;;1.08;;
70010;SDS011;59543;37.950;-122.338;2023-05-16T03:06:13;8.25;;;1.30;;
70010;SDS011;59543;37.950;-122.338;2023-05-16T03:08:39;6.78;;;1.15;;
70010;SDS011;59543;37.950;-122.338;2023-05-16T03:11:06;3.13;;;0.95;;
70010;SDS011;59543;37.950;-122.338;2023-05-16T03:13:32;3.70;;;0.80;;
70010;SDS011;59543;37.950;-122.338;2023-05-16T03:15:59;3.78;;;1.10;;
70010;SDS011;59543;37.950;-122.338;2023-05-16T03:18:25;3.55;;;1.13;;
70010;SDS011;59543;37.950;-122.338;2023-05-16T03:20:51;3.03;;;0.80;;
70010;SDS011;59543;37.950;-122.338;2023-05-16T03:23:18;6.30;;;0.82;;
70010;SDS011;59543;37.950;-122.338;2023-05-16T03:25:45;3.30;;;1.30;;
70010;SDS011;59543;37.950;-122.338;2023-05-16T03:28:12;5.50;;;1.23;;
70010;SDS011;59543;37.950;-122.338;2023-05-16T03:30:38;5.78;;;1.20;;
70010;SDS011;59543;37.950;-122.338;2023-05-16T03:33:04;7.32;;;1.33;;
70010;SDS011;59543;37.950;-122.338;2023-05-16T03:35:31;5.82;;;1.30;;
70010;SDS011;59543;37.950;-122.338;2023-05-16T03:37:59;3.80;;;0.80;;
70010;SDS011;59543;37.950;-122.338;2023-05-16T03:40:25;6.38;;;1.13;;
70010;SDS011;59543;37.950;-122.338;2023-05-16T03:42:51;4.50;;;1.08;;
70010;SDS011;59543;37.950;-122.338;2023-05-16T03:45:17;3.38;;;1.30;;
70010;SDS011;59543;37.950;-122.338;2023-05-16T03:47:44;3.28;;;1.00;;
70010;SDS011;59543;37.950;-122.338;2023-05-16T03:50:10;6.43;;;1.20;;
70010;SDS011;59543;37.950;-122.338;2023-05-16T03:52:36;5.78;;;1.20;;
70010;SDS011;59543;37.950;-122.338;2023-05-16T03:55:03;4.80;;;1.35;;
70010;SDS011;59543;37.950;-122.338;2023-05-16T03:57:30;9.05;;;1.13;;
70010;SDS011;59543;37.950;-122.338;2023-05-16T03:59:57;3.83;;;1.10;;
70010;SDS011;59543;37.950;-122.338;2023-05-16T04:02:24;5.55;;;1.33;;
70010;SDS011;59543;37.950;-122.338;2023-05-16T04:04:50;3.65;;;1.00;;
70010;SDS011;59543;37.950;-122.338;2023-05-16T04:07:17;8.40;;;1.60;;
70010;SDS011;59543;37.950;-122.338;2023-05-16T04:09:43;7.57;;;1.40;;
70010;SDS011;59543;37.950;-122.338;2023-05-16T04:12:09;6.25;;;1.20;;
70010;SDS011;59543;37.950;-122.338;2023-05-16T04:14:35;5.30;;;1.25;;
70010;SDS011;59543;37.950;-122.338;2023-05-16T04:17:02;4.30;;;0.95;;
70010;SDS011;59543;37.950;-122.338;2023-05-16T04:19:29;10.38;;;1.10;;
70010;SDS011;59543;37.950;-122.338;2023-05-16T04:21:55;8.07;;;1.55;;
70010;SDS011;59543;37.950;-122.338;2023-05-16T04:24:21;5.10;;;1.40;;
70010;SDS011;59543;37.950;-122.338;2023-05-16T04:26:50;3.55;;;1.40;;
70010;SDS011;59543;37.950;-122.338;2023-05-16T04:29:17;4.65;;;1.38;;
70010;SDS011;59543;37.950;-122.338;2023-05-16T04:31:43;4.93;;;1.48;;
70010;SDS011;59543;37.950;-122.338;2023-05-16T04:34:10;4.75;;;1.58;;
70010;SDS011;59543;37.950;-122.338;2023-05-16T04:36:36;4.25;;;1.38;;
70010;SDS011;59543;37.950;-122.338;2023-05-16T04:39:02;6.85;;;1.75;;
70010;SDS011;59543;37.950;-122.338;2023-05-16T04:41:29;4.90;;;1.38;;
70010;SDS011;59543;37.950;-122.338;2023-05-16T04:43:55;10.32;;;1.27;;
70010;SDS011;59543;37.950;-122.338;2023-05-16T04:46:21;6.75;;;1.52;;
70010;SDS011;59543;37.950;-122.338;2023-05-16T04:48:48;5.55;;;1.67;;
70010;SDS011;59543;37.950;-122.338;2023-05-16T04:51:14;8.85;;;1.80;;
70010;SDS011;59543;37.950;-122.338;2023-05-16T04:53:40;7.90;;;1.60;;
70010;SDS011;59543;37.950;-122.338;2023-05-16T04:56:06;8.20;;;1.60;;
70010;SDS011;59543;37.950;-122.338;2023-05-16T04:58:33;9.85;;;2.00;;
70010;SDS011;59543;37.950;-122.338;2023-05-16T05:00:59;9.52;;;1.80;;
70010;SDS011;59543;37.950;-122.338;2023-05-16T05:03:25;5.95;;;1.75;;
70010;SDS011;59543;37.950;-122.338;2023-05-16T05:05:52;6.15;;;1.60;;
70010;SDS011;59543;37.950;-122.338;2023-05-16T05:08:19;4.68;;;1.40;;
70010;SDS011;59543;37.950;-122.338;2023-05-16T05:10:46;3.70;;;1.23;;
70010;SDS011;59543;37.950;-122.338;2023-05-16T05:13:12;9.35;;;1.58;;
70010;SDS011;59543;37.950;-122.338;2023-05-16T05:15:38;7.38;;;2.17;;
70010;SDS011;59543;37.950;-122.338;2023-05-16T05:18:05;6.78;;;1.48;;
70010;SDS011;59543;37.950;-122.338;2023-05-16T05:20:31;6.50;;;1.40;;
70010;SDS011;59543;37.950;-122.338;2023-05-16T05:22:57;8.38;;;1.80;;
70010;SDS011;59543;37.950;-122.338;2023-05-16T05:25:23;6.82;;;2.25;;
70010;SDS011;59543;37.950;-122.338;2023-05-16T05:27:51;10.68;;;2.55;;
70010;SDS011;59543;37.950;-122.338;2023-05-16T05:30:17;13.00;;;2.35;;
70010;SDS011;59543;37.950;-122.338;2023-05-16T05:32:43;7.15;;;1.98;;
70010;SDS011;59543;37.950;-122.338;2023-05-16T05:35:09;8.00;;;1.63;;
70010;SDS011;59543;37.950;-122.338;2023-05-16T05:37:35;22.05;;;2.65;;
70010;SDS011;59543;37.950;-122.338;2023-05-16T05:40:02;8.20;;;2.10;;
70010;SDS011;59543;37.950;-122.338;2023-05-16T05:42:28;8.73;;;1.88;;
70010;SDS011;59543;37.950;-122.338;2023-05-16T05:44:55;7.63;;;1.80;;
70010;SDS011;59543;37.950;-122.338;2023-05-16T05:47:21;10.25;;;2.10;;
70010;SDS011;59543;37.950;-122.338;2023-05-16T05:49:47;7.45;;;1.67;;
70010;SDS011;59543;37.950;-122.338;2023-05-16T05:52:14;9.55;;;2.00;;
70010;SDS011;59543;37.950;-122.338;2023-05-16T05:54:40;9.60;;;2.40;;
70010;SDS011;59543;37.950;-122.338;2023-05-16T05:57:07;11.05;;;1.90;;
70010;SDS011;59543;37.950;-122.338;2023-05-16T05:59:33;8.07;;;1.85;;
70010;SDS011;59543;37.950;-122.338;2023-05-16T06:01:59;6.75;;;1.98;;
70010;SDS011;59543;37.950;-122.338;2023-05-16T06:04:25;5.65;;;1.80;;
70010;SDS011;59543;37.950;-122.338;2023-05-16T06:06:52;10.02;;;2.35;;
70010;SDS011;59543;37.950;-122.338;2023-05-16T06:09:19;5.90;;;1.60;;
70010;SDS011;59543;37.950;-122.338;2023-05-16T06:11:46;6.80;;;1.88;;
70010;SDS011;59543;37.950;-122.338;2023-05-16T06:14:13;13.90;;;2.10;;
70010;SDS011;59543;37.950;-122.338;2023-05-16T06:16:42;9.98;;;2.03;;
70010;SDS011;59543;37.950;-122.338;2023-05-16T06:19:09;11.10;;;2.40;;
70010;SDS011;59543;37.950;-122.338;2023-05-16T06:21:36;6.00;;;1.85;;
70010;SDS011;59543;37.950;-122.338;2023-05-16T06:24:02;5.90;;;1.85;;
70010;SDS011;59543;37.950;-122.338;2023-05-16T06:26:29;6.32;;;1.70;;
70010;SDS011;59543;37.950;-122.338;2023-05-16T06:28:55;6.72;;;1.85;;
70010;SDS011;59543;37.950;-122.338;2023-05-16T06:31:21;8.63;;;1.80;;
70010;SDS011;59543;37.950;-122.338;2023-05-16T06:33:48;6.28;;;1.75;;
70010;SDS011;59543;37.950;-122.338;2023-05-16T06:36:14;6.60;;;2.00;;
70010;SDS011;59543;37.950;-122.338;2023-05-16T06:38:40;6.50;;;1.55;;
70010;SDS011;59543;37.950;-122.338;2023-05-16T06:41:07;5.35;;;1.42;;
70010;SDS011;59543;37.950;-122.338;2023-05-16T06:43:33;6.75;;;1.65;;
70010;SDS011;59543;37.950;-122.338;2023-05-16T06:45:59;7.88;;;1.92;;
70010;SDS011;59543;37.950;-122.338;2023-05-16T06:48:26;8.07;;;1.65;;
70010;SDS011;59543;37.950;-122.338;2023-05-16T06:50:52;6.65;;;1.67;;
70010;SDS011;59543;37.950;-122.338;2023-05-16T06:53:18;7.13;;;1.67;;
70010;SDS011;59543;37.950;-122.338;2023-05-16T06:55:45;9.57;;;1.77;;
70010;SDS011;59543;37.950;-122.338;2023-05-16T06:58:11;7.20;;;2.08;;
70010;SDS011;59543;37.950;-122.338;2023-05-16T07:00:38;8.13;;;1.70;;
70010;SDS011;59543;37.950;-122.338;2023-05-16T07:03:04;5.15;;;1.52;;
70010;SDS011;59543;37.950;-122.338;2023-05-16T07:05:30;5.05;;;1.63;;
70010;SDS011;59543;37.950;-122.338;2023-05-16T07:07:56;5.93;;;1.88;;
70010;SDS011;59543;37.950;-122.338;2023-05-16T07:10:22;7.90;;;1.65;;
70010;SDS011;59543;37.950;-122.338;2023-05-16T07:12:49;12.68;;;2.28;;
70010;SDS011;59543;37.950;-122.338;2023-05-16T07:15:15;7.03;;;1.90;;
70010;SDS011;59543;37.950;-122.338;2023-05-16T07:17:41;9.35;;;2.20;;
70010;SDS011;59543;37.950;-122.338;2023-05-16T07:20:08;9.48;;;2.00;;
70010;SDS011;59543;37.950;-122.338;2023-05-16T07:22:38;7.25;;;1.60;;
70010;SDS011;59543;37.950;-122.338;2023-05-16T07:25:05;6.35;;;1.50;;
70010;SDS011;59543;37.950;-122.338;2023-05-16T07:27:37;6.75;;;2.05;;
70010;SDS011;59543;37.950;-122.338;2023-05-16T07:30:06;5.95;;;1.65;;
70010;SDS011;59543;37.950;-122.338;2023-05-16T07:32:34;10.20;;;1.92;;
70010;SDS011;59543;37.950;-122.338;2023-05-16T07:35:00;6.43;;;2.00;;
70010;SDS011;59543;37.950;-122.338;2023-05-16T07:37:26;9.15;;;1.83;;
70010;SDS011;59543;37.950;-122.338;2023-05-16T07:39:53;7.85;;;1.80;;
70010;SDS011;59543;37.950;-122.338;2023-05-16T07:42:19;9.60;;;2.45;;
70010;SDS011;59543;37.950;-122.338;2023-05-16T07:44:45;5.95;;;1.52;;
70010;SDS011;59543;37.950;-122.338;2023-05-16T07:47:11;6.05;;;1.70;;
70010;SDS011;59543;37.950;-122.338;2023-05-16T07:49:38;7.93;;;1.60;;
70010;SDS011;59543;37.950;-122.338;2023-05-16T07:52:04;7.65;;;1.45;;
70010;SDS011;59543;37.950;-122.338;2023-05-16T07:54:31;5.20;;;1.65;;
70010;SDS011;59543;37.950;-122.338;2023-05-16T07:56:59;7.22;;;1.77;;
70010;SDS011;59543;37.950;-122.338;2023-05-16T07:59:27;10.45;;;2.15;;
70010;SDS011;59543;37.950;-122.338;2023-05-16T08:01:53;6.78;;;2.00;;
70010;SDS011;59543;37.950;-122.338;2023-05-16T08:04:20;10.63;;;4.85;;
70010;SDS011;59543;37.950;-122.338;2023-05-16T08:06:46;12.30;;;6.35;;
70010;SDS011;59543;37.950;-122.338;2023-05-16T08:09:13;11.35;;;4.32;;
70010;SDS011;59543;37.950;-122.338;2023-05-16T08:11:39;13.40;;;3.55;;
70010;SDS011;59543;37.950;-122.338;2023-05-16T08:14:05;5.65;;;2.35;;
70010;SDS011;59543;37.950;-122.338;2023-05-16T08:16:32;8.05;;;2.85;;
70010;SDS011;59543;37.950;-122.338;2023-05-16T08:18:58;7.53;;;2.83;;
70010;SDS011;59543;37.950;-122.338;2023-05-16T08:21:24;9.95;;;3.20;;
70010;SDS011;59543;37.950;-122.338;2023-05-16T08:23:51;10.00;;;2.75;;
70010;SDS011;59543;37.950;-122.338;2023-05-16T08:26:17;9.30;;;2.90;;
70010;SDS011;59543;37.950;-122.338;2023-05-16T08:28:43;5.53;;;2.53;;
70010;SDS011;59543;37.950;-122.338;2023-05-16T08:31:09;8.77;;;3.22;;
70010;SDS011;59543;37.950;-122.338;2023-05-16T08:33:35;8.73;;;3.22;;
70010;SDS011;59543;37.950;-122.338;2023-05-16T08:36:02;9.40;;;3.58;;
70010;SDS011;59543;37.950;-122.338;2023-05-16T08:38:28;10.35;;;3.25;;
70010;SDS011;59543;37.950;-122.338;2023-05-16T08:40:54;9.90;;;3.72;;
70010;SDS011;59543;37.950;-122.338;2023-05-16T08:43:21;8.90;;;4.13;;
70010;SDS011;59543;37.950;-122.338;2023-05-16T08:45:48;9.88;;;3.72;;
70010;SDS011;59543;37.950;-122.338;2023-05-16T08:48:14;11.00;;;4.40;;
70010;SDS011;59543;37.950;-122.338;2023-05-16T08:50:43;10.77;;;4.65;;
70010;SDS011;59543;37.950;-122.338;2023-05-16T08:53:09;13.57;;;4.68;;
70010;SDS011;59543;37.950;-122.338;2023-05-16T08:55:39;9.73;;;4.00;;
70010;SDS011;59543;37.950;-122.338;2023-05-16T08:58:07;11.55;;;4.20;;
70010;SDS011;59543;37.950;-122.338;2023-05-16T09:00:33;12.88;;;4.65;;
70010;SDS011;59543;37.950;-122.338;2023-05-16T09:03:00;10.23;;;3.80;;
70010;SDS011;59543;37.950;-122.338;2023-05-16T09:05:28;13.05;;;4.43;;
70010;SDS011;59543;37.950;-122.338;2023-05-16T09:07:55;13.73;;;5.55;;
70010;SDS011;59543;37.950;-122.338;2023-05-16T09:10:21;12.05;;;5.90;;
70010;SDS011;59543;37.950;-122.338;2023-05-16T09:12:48;12.18;;;6.25;;
70010;SDS011;59543;37.950;-122.338;2023-05-16T09:15:16;16.35;;;7.85;;
70010;SDS011;59543;37.950;-122.338;2023-05-16T09:17:45;13.68;;;6.25;;
70010;SDS011;59543;37.950;-122.338;2023-05-16T09:20:12;8.80;;;5.18;;
70010;SDS011;59543;37.950;-122.338;2023-05-16T09:22:48;9.50;;;5.10;;
70010;SDS011;59543;37.950;-122.338;2023-05-16T09:25:17;11.95;;;5.95;;
70010;SDS011;59543;37.950;-122.338;2023-05-16T09:27:45;13.52;;;5.57;;
70010;SDS011;59543;37.950;-122.338;2023-05-16T09:30:15;9.50;;;5.40;;
70010;SDS011;59543;37.950;-122.338;2023-05-16T09:32:45;14.23;;;6.18;;
70010;SDS011;59543;37.950;-122.338;2023-05-16T09:35:14;9.88;;;6.10;;
70010;SDS011;59543;37.950;-122.338;2023-05-16T09:37:47;9.63;;;6.22;;
70010;SDS011;59543;37.950;-122.338;2023-05-16T09:40:14;12.52;;;8.20;;
70010;SDS011;59543;37.950;-122.338;2023-05-16T09:42:41;14.40;;;8.07;;
70010;SDS011;59543;37.950;-122.338;2023-05-16T09:45:11;12.73;;;6.45;;
70010;SDS011;59543;37.950;-122.338;2023-05-16T09:47:38;8.45;;;5.10;;
70010;SDS011;59543;37.950;-122.338;2023-05-16T09:50:12;9.48;;;4.57;;
70010;SDS011;59543;37.950;-122.338;2023-05-16T09:52:40;8.60;;;5.20;;
70010;SDS011;59543;37.950;-122.338;2023-05-16T09:55:07;15.75;;;8.90;;
70010;SDS011;59543;37.950;-122.338;2023-05-16T09:57:38;17.30;;;10.45;;
70010;SDS011;59543;37.950;-122.338;2023-05-16T10:00:11;22.40;;;11.43;;
70010;SDS011;59543;37.950;-122.338;2023-05-16T10:02:37;19.27;;;8.77;;
70010;SDS011;59543;37.950;-122.338;2023-05-16T10:05:04;13.40;;;8.02;;
70010;SDS011;59543;37.950;-122.338;2023-05-16T10:07:31;16.58;;;9.25;;
70010;SDS011;59543;37.950;-122.338;2023-05-16T10:10:02;15.70;;;9.75;;
70010;SDS011;59543;37.950;-122.338;2023-05-16T10:12:32;15.45;;;10.77;;
70010;SDS011;59543;37.950;-122.338;2023-05-16T10:15:02;16.10;;;11.25;;
70010;SDS011;59543;37.950;-122.338;2023-05-16T10:17:33;18.58;;;11.30;;
70010;SDS011;59543;37.950;-122.338;2023-05-16T10:20:02;17.63;;;11.70;;
70010;SDS011;59543;37.950;-122.338;2023-05-16T10:22:34;15.57;;;12.00;;
70010;SDS011;59543;37.950;-122.338;2023-05-16T10:25:05;21.08;;;13.27;;
70010;SDS011;59543;37.950;-122.338;2023-05-16T10:27:41;17.30;;;10.27;;
70010;SDS011;59543;37.950;-122.338;2023-05-16T10:30:08;13.15;;;7.38;;
70010;SDS011;59543;37.950;-122.338;2023-05-16T10:32:36;14.00;;;6.25;;
70010;SDS011;59543;37.950;-122.338;2023-05-16T10:35:02;9.18;;;4.15;;
70010;SDS011;59543;37.950;-122.338;2023-05-16T10:37:29;10.50;;;4.47;;
70010;SDS011;59543;37.950;-122.338;2023-05-16T10:40:00;10.20;;;4.90;;
70010;SDS011;59543;37.950;-122.338;2023-05-16T10:42:33;10.85;;;4.93;;
70010;SDS011;59543;37.950;-122.338;2023-05-16T10:47:51;8.27;;;5.97;;
70010;SDS011;59543;37.950;-122.338;2023-05-16T10:50:37;9.85;;;5.53;;
70010;SDS011;59543;37.950;-122.338;2023-05-16T10:55:49;13.32;;;7.20;;
70010;SDS011;59543;37.950;-122.338;2023-05-16T11:04:08;11.52;;;5.50;;
70010;SDS011;59543;37.950;-122.338;2023-05-16T11:11:39;12.52;;;6.55;;
70010;SDS011;59543;37.950;-122.338;2023-05-16T11:14:06;15.05;;;7.60;;
70010;SDS011;59543;37.950;-122.338;2023-05-16T11:16:33;11.27;;;6.75;;
70010;SDS011;59543;37.950;-122.338;2023-05-16T11:19:06;11.07;;;6.70;;
70010;SDS011;59543;37.950;-122.338;2023-05-16T11:24:37;13.68;;;8.20;;
70010;SDS011;59543;37.950;-122.338;2023-05-16T11:27:04;11.68;;;8.45;;
70010;SDS011;59543;37.950;-122.338;2023-05-16T11:29:31;11.00;;;6.60;;
70010;SDS011;59543;37.950;-122.338;2023-05-16T11:31:59;9.80;;;4.05;;
70010;SDS011;59543;37.950;-122.338;2023-05-16T11:34:28;10.27;;;3.63;;
70010;SDS011;59543;37.950;-122.338;2023-05-16T11:36:54;11.63;;;3.40;;
70010;SDS011;59543;37.950;-122.338;2023-05-16T11:39:21;15.13;;;4.07;;
70010;SDS011;59543;37.950;-122.338;2023-05-16T11:41:51;12.57;;;4.63;;
70010;SDS011;59543;37.950;-122.338;2023-05-16T11:44:18;8.20;;;3.55;;
70010;SDS011;59543;37.950;-122.338;2023-05-16T11:46:44;12.05;;;3.72;;
70010;SDS011;59543;37.950;-122.338;2023-05-16T11:49:11;10.05;;;2.78;;
70010;SDS011;59543;37.950;-122.338;2023-05-16T11:51:41;10.70;;;2.53;;
70010;SDS011;59543;37.950;-122.338;2023-05-16T11:54:11;6.30;;;2.70;;
70010;SDS011;59543;37.950;-122.338;2023-05-16T11:56:38;6.60;;;2.50;;
70010;SDS011;59543;37.950;-122.338;2023-05-16T11:59:05;8.55;;;2.33;;
70010;SDS011;59543;37.950;-122.338;2023-05-16T12:01:35;11.02;;;2.53;;
70010;SDS011;59543;37.950;-122.338;2023-05-16T12:04:09;8.25;;;2.88;;
70010;SDS011;59543;37.950;-122.338;2023-05-16T12:06:39;8.27;;;2.70;;
70010;SDS011;59543;37.950;-122.338;2023-05-16T12:09:10;12.30;;;2.92;;
70010;SDS011;59543;37.950;-122.338;2023-05-16T12:11:38;10.07;;;2.45;;
70010;SDS011;59543;37.950;-122.338;2023-05-16T12:14:06;9.40;;;2.72;;
70010;SDS011;59543;37.950;-122.338;2023-05-16T12:16:35;9.45;;;2.78;;
70010;SDS011;59543;37.950;-122.338;2023-05-16T12:19:03;10.13;;;2.65;;
70010;SDS011;59543;37.950;-122.338;2023-05-16T12:21:31;12.65;;;2.65;;
70010;SDS011;59543;37.950;-122.338;2023-05-16T12:23:58;9.57;;;2.78;;
70010;SDS011;59543;37.950;-122.338;2023-05-16T12:26:25;9.85;;;2.53;;
70010;SDS011;59543;37.950;-122.338;2023-05-16T12:29:01;11.25;;;3.05;;
70010;SDS011;59543;37.950;-122.338;2023-05-16T12:31:30;14.15;;;3.30;;
70010;SDS011;59543;37.950;-122.338;2023-05-16T12:34:01;9.85;;;2.70;;
70010;SDS011;59543;37.950;-122.338;2023-05-16T12:36:30;14.18;;;3.35;;
70010;SDS011;59543;37.950;-122.338;2023-05-16T12:39:01;15.57;;;3.53;;
70010;SDS011;59543;37.950;-122.338;2023-05-16T12:41:28;7.88;;;2.60;;
70010;SDS011;59543;37.950;-122.338;2023-05-16T12:44:28;11.88;;;3.30;;
70010;SDS011;59543;37.950;-122.338;2023-05-16T12:46:49;12.50;;;3.65;;
70010;SDS011;59543;37.950;-122.338;2023-05-16T12:49:22;8.82;;;3.72;;
70010;SDS011;59543;37.950;-122.338;2023-05-16T12:51:49;10.57;;;3.88;;
70010;SDS011;59543;37.950;-122.338;2023-05-16T12:54:17;7.65;;;3.78;;
70010;SDS011;59543;37.950;-122.338;2023-05-16T12:56:44;11.48;;;5.25;;
70010;SDS011;59543;37.950;-122.338;2023-05-16T12:59:11;16.30;;;5.45;;
70010;SDS011;59543;37.950;-122.338;2023-05-16T13:01:37;11.98;;;5.45;;
70010;SDS011;59543;37.950;-122.338;2023-05-16T13:04:04;11.48;;;5.45;;
70010;SDS011;59543;37.950;-122.338;2023-05-16T13:06:31;16.50;;;7.68;;
70010;SDS011;59543;37.950;-122.338;2023-05-16T13:08:57;15.30;;;9.20;;
70010;SDS011;59543;37.950;-122.338;2023-05-16T13:11:24;14.95;;;8.63;;
70010;SDS011;59543;37.950;-122.338;2023-05-16T13:13:50;17.67;;;8.48;;
70010;SDS011;59543;37.950;-122.338;2023-05-16T13:16:17;15.90;;;8.57;;
70010;SDS011;59543;37.950;-122.338;2023-05-16T13:18:43;12.77;;;8.48;;
70010;SDS011;59543;37.950;-122.338;2023-05-16T13:21:10;18.27;;;8.75;;
70010;SDS011;59543;37.950;-122.338;2023-05-16T13:23:36;15.25;;;9.02;;
70010;SDS011;59543;37.950;-122.338;2023-05-16T13:26:02;12.63;;;8.60;;
70010;SDS011;59543;37.950;-122.338;2023-05-16T13:28:29;17.95;;;9.13;;
70010;SDS011;59543;37.950;-122.338;2023-05-16T13:30:56;17.60;;;9.73;;
70010;SDS011;59543;37.950;-122.338;2023-05-16T13:33:22;13.40;;;7.65;;
70010;SDS011;59543;37.950;-122.338;2023-05-16T13:35:49;17.23;;;7.95;;
70010;SDS011;59543;37.950;-122.338;2023-05-16T13:38:15;16.23;;;8.32;;
70010;SDS011;59543;37.950;-122.338;2023-05-16T13:40:43;14.07;;;8.82;;
70010;SDS011;59543;37.950;-122.338;2023-05-16T13:43:09;16.25;;;8.35;;
70010;SDS011;59543;37.950;-122.338;2023-05-16T13:45:38;27.65;;;9.85;;
70010;SDS011;59543;37.950;-122.338;2023-05-16T13:48:05;14.73;;;7.72;;
70010;SDS011;59543;37.950;-122.338;2023-05-16T13:50:31;18.88;;;7.40;;
70010;SDS011;59543;37.950;-122.338;2023-05-16T13:52:58;14.80;;;7.32;;
70010;SDS011;59543;37.950;-122.338;2023-05-16T13:55:24;16.10;;;7.57;;
70010;SDS011;59543;37.950;-122.338;2023-05-16T13:57:50;13.23;;;6.63;;
70010;SDS011;59543;37.950;-122.338;2023-05-16T14:00:16;12.30;;;5.97;;
70010;SDS011;59543;37.950;-122.338;2023-05-16T14:02:43;13.63;;;6.57;;
70010;SDS011;59543;37.950;-122.338;2023-05-16T14:05:09;12.52;;;6.65;;
70010;SDS011;59543;37.950;-122.338;2023-05-16T14:07:36;14.60;;;6.85;;
70010;SDS011;59543;37.950;-122.338;2023-05-16T14:10:02;12.82;;;6.78;;
70010;SDS011;59543;37.950;-122.338;2023-05-16T14:12:30;12.38;;;6.35;;
70010;SDS011;59543;37.950;-122.338;2023-05-16T14:14:57;13.98;;;6.43;;
70010;SDS011;59543;37.950;-122.338;2023-05-16T14:17:23;12.93;;;6.43;;
70010;SDS011;59543;37.950;-122.338;2023-05-16T14:19:50;13.35;;;6.15;;
70010;SDS011;59543;37.950;-122.338;2023-05-16T14:22:16;13.25;;;6.63;;
70010;SDS011;59543;37.950;-122.338;2023-05-16T14:24:43;11.43;;;6.35;;
70010;SDS011;59543;37.950;-122.338;2023-05-16T14:27:10;15.68;;;6.10;;
70010;SDS011;59543;37.950;-122.338;2023-05-16T14:29:36;13.35;;;6.05;;
70010;SDS011;59543;37.950;-122.338;2023-05-16T14:32:02;19.05;;;6.45;;
70010;SDS011;59543;37.950;-122.338;2023-05-16T14:34:29;9.93;;;5.40;;
70010;SDS011;59543;37.950;-122.338;2023-05-16T14:36:55;11.15;;;5.80;;
70010;SDS011;59543;37.950;-122.338;2023-05-16T14:39:21;17.73;;;6.18;;